Center Point, South Dakota
Current Conditions -  °F | °C
As of 9:55 PM on Thursday 18 Dec 2014 (Local Time) from KYKN Reporting Station
Overcast Overcast  
Wind Chill: 20°   Ceiling: 2000
Heat Index: 28°   Visibility: 9mi
Dew Point: 25°   Wind: 8mph
Humidity: 86%   Direction: 190°S
Pressure: 30.19"   Gusts: NA
Location:  43.1951°N, 97.1515°W
Report Text: KYKN 190355Z AUTO 19007KT 9SM OVC020 M02/M04 A3019 RMK AO1
Loading
Personal Weather Stations






























Interactive Weather Map New forecast layout! Learn more

10-Day Weather Forecast

Advertisements
Track Severe Weather on mobile